sensor_id;sensor_type;location;lat;lon;timestamp;P1;durP1;ratioP1;P2;durP2;ratioP2
29370;SDS011;16357;52.188;7.838;2024-01-30T00:00:25;13.70;;;9.93;;
29370;SDS011;16357;52.188;7.838;2024-01-30T00:02:51;17.65;;;10.52;;
29370;SDS011;16357;52.188;7.838;2024-01-30T00:05:18;12.82;;;9.48;;
29370;SDS011;16357;52.188;7.838;2024-01-30T00:07:44;15.73;;;10.02;;
29370;SDS011;16357;52.188;7.838;2024-01-30T00:10:11;16.15;;;9.63;;
29370;SDS011;16357;52.188;7.838;2024-01-30T00:12:37;14.93;;;9.80;;
29370;SDS011;16357;52.188;7.838;2024-01-30T00:15:04;13.38;;;9.75;;
29370;SDS011;16357;52.188;7.838;2024-01-30T00:17:31;14.30;;;10.35;;
29370;SDS011;16357;52.188;7.838;2024-01-30T00:19:57;14.48;;;9.45;;
29370;SDS011;16357;52.188;7.838;2024-01-30T00:22:24;14.95;;;9.82;;
29370;SDS011;16357;52.188;7.838;2024-01-30T00:24:51;13.85;;;8.85;;
29370;SDS011;16357;52.188;7.838;2024-01-30T00:27:17;13.63;;;10.20;;
29370;SDS011;16357;52.188;7.838;2024-01-30T00:29:44;14.20;;;10.23;;
29370;SDS011;16357;52.188;7.838;2024-01-30T00:32:10;16.33;;;9.98;;
29370;SDS011;16357;52.188;7.838;2024-01-30T00:34:37;15.35;;;10.00;;
29370;SDS011;16357;52.188;7.838;2024-01-30T00:37:03;16.90;;;9.40;;
29370;SDS011;16357;52.188;7.838;2024-01-30T00:39:30;13.38;;;9.52;;
29370;SDS011;16357;52.188;7.838;2024-01-30T00:41:56;16.40;;;10.35;;
29370;SDS011;16357;52.188;7.838;2024-01-30T00:44:23;15.23;;;10.00;;
29370;SDS011;16357;52.188;7.838;2024-01-30T00:46:49;14.13;;;9.98;;
29370;SDS011;16357;52.188;7.838;2024-01-30T00:49:16;13.30;;;9.35;;
29370;SDS011;16357;52.188;7.838;2024-01-30T00:51:42;13.30;;;9.38;;
29370;SDS011;16357;52.188;7.838;2024-01-30T00:54:09;14.50;;;10.23;;
29370;SDS011;16357;52.188;7.838;2024-01-30T00:56:35;15.73;;;8.85;;
29370;SDS011;16357;52.188;7.838;2024-01-30T00:59:02;15.63;;;9.65;;
29370;SDS011;16357;52.188;7.838;2024-01-30T01:01:28;14.10;;;9.65;;
29370;SDS011;16357;52.188;7.838;2024-01-30T01:03:55;13.35;;;9.68;;
29370;SDS011;16357;52.188;7.838;2024-01-30T01:06:21;12.10;;;9.32;;
29370;SDS011;16357;52.188;7.838;2024-01-30T01:08:48;14.20;;;9.85;;
29370;SDS011;16357;52.188;7.838;2024-01-30T01:11:15;14.35;;;9.60;;
29370;SDS011;16357;52.188;7.838;2024-01-30T01:13:41;14.73;;;9.93;;
29370;SDS011;16357;52.188;7.838;2024-01-30T01:16:08;15.32;;;10.20;;
29370;SDS011;16357;52.188;7.838;2024-01-30T01:18:34;13.55;;;9.00;;
29370;SDS011;16357;52.188;7.838;2024-01-30T01:21:01;14.32;;;9.65;;
29370;SDS011;16357;52.188;7.838;2024-01-30T01:23:27;14.77;;;9.40;;
29370;SDS011;16357;52.188;7.838;2024-01-30T01:25:54;13.35;;;9.73;;
29370;SDS011;16357;52.188;7.838;2024-01-30T01:28:25;14.27;;;9.02;;
29370;SDS011;16357;52.188;7.838;2024-01-30T01:30:52;14.05;;;9.57;;
29370;SDS011;16357;52.188;7.838;2024-01-30T01:33:18;13.02;;;9.75;;
29370;SDS011;16357;52.188;7.838;2024-01-30T01:35:45;14.32;;;9.48;;
29370;SDS011;16357;52.188;7.838;2024-01-30T01:38:11;15.00;;;9.63;;
29370;SDS011;16357;52.188;7.838;2024-01-30T01:40:38;13.07;;;8.80;;
29370;SDS011;16357;52.188;7.838;2024-01-30T01:43:05;14.43;;;9.77;;
29370;SDS011;16357;52.188;7.838;2024-01-30T01:45:32;17.02;;;9.73;;
29370;SDS011;16357;52.188;7.838;2024-01-30T01:47:58;13.50;;;9.88;;
29370;SDS011;16357;52.188;7.838;2024-01-30T01:50:25;13.15;;;9.77;;
29370;SDS011;16357;52.188;7.838;2024-01-30T01:52:52;15.13;;;9.75;;
29370;SDS011;16357;52.188;7.838;2024-01-30T01:55:21;12.82;;;9.00;;
29370;SDS011;16357;52.188;7.838;2024-01-30T01:57:49;12.68;;;9.57;;
29370;SDS011;16357;52.188;7.838;2024-01-30T02:00:16;14.25;;;9.35;;
29370;SDS011;16357;52.188;7.838;2024-01-30T02:02:45;13.30;;;9.57;;
29370;SDS011;16357;52.188;7.838;2024-01-30T02:05:13;14.32;;;9.68;;
29370;SDS011;16357;52.188;7.838;2024-01-30T02:07:40;12.80;;;9.48;;
29370;SDS011;16357;52.188;7.838;2024-01-30T02:10:08;13.25;;;9.35;;
29370;SDS011;16357;52.188;7.838;2024-01-30T02:12:36;13.27;;;9.35;;
29370;SDS011;16357;52.188;7.838;2024-01-30T02:15:02;12.52;;;9.07;;
29370;SDS011;16357;52.188;7.838;2024-01-30T02:17:31;12.38;;;8.95;;
29370;SDS011;16357;52.188;7.838;2024-01-30T02:19:57;12.23;;;8.57;;
29370;SDS011;16357;52.188;7.838;2024-01-30T02:22:24;14.30;;;9.45;;
29370;SDS011;16357;52.188;7.838;2024-01-30T02:24:51;12.63;;;9.23;;
29370;SDS011;16357;52.188;7.838;2024-01-30T02:27:17;12.88;;;8.75;;
29370;SDS011;16357;52.188;7.838;2024-01-30T02:29:44;13.50;;;8.90;;
29370;SDS011;16357;52.188;7.838;2024-01-30T02:32:11;12.45;;;8.32;;
29370;SDS011;16357;52.188;7.838;2024-01-30T02:34:37;13.50;;;9.07;;
29370;SDS011;16357;52.188;7.838;2024-01-30T02:37:04;14.18;;;9.20;;
29370;SDS011;16357;52.188;7.838;2024-01-30T02:39:30;12.73;;;8.25;;
29370;SDS011;16357;52.188;7.838;2024-01-30T02:41:57;13.45;;;9.68;;
29370;SDS011;16357;52.188;7.838;2024-01-30T02:44:23;11.77;;;8.68;;
29370;SDS011;16357;52.188;7.838;2024-01-30T02:46:50;13.57;;;9.63;;
29370;SDS011;16357;52.188;7.838;2024-01-30T02:49:16;12.55;;;9.02;;
29370;SDS011;16357;52.188;7.838;2024-01-30T02:51:43;13.35;;;9.25;;
29370;SDS011;16357;52.188;7.838;2024-01-30T02:54:09;14.07;;;9.45;;
29370;SDS011;16357;52.188;7.838;2024-01-30T02:56:36;15.60;;;9.52;;
29370;SDS011;16357;52.188;7.838;2024-01-30T02:59:02;13.05;;;8.82;;
29370;SDS011;16357;52.188;7.838;2024-01-30T03:01:29;13.60;;;8.93;;
29370;SDS011;16357;52.188;7.838;2024-01-30T03:03:55;15.60;;;9.98;;
29370;SDS011;16357;52.188;7.838;2024-01-30T03:06:22;13.95;;;8.93;;
29370;SDS011;16357;52.188;7.838;2024-01-30T03:08:49;13.02;;;9.07;;
29370;SDS011;16357;52.188;7.838;2024-01-30T03:11:15;11.68;;;8.57;;
29370;SDS011;16357;52.188;7.838;2024-01-30T03:13:42;13.13;;;8.43;;
29370;SDS011;16357;52.188;7.838;2024-01-30T03:16:08;11.65;;;9.00;;
29370;SDS011;16357;52.188;7.838;2024-01-30T03:18:35;13.38;;;8.95;;
29370;SDS011;16357;52.188;7.838;2024-01-30T03:21:01;13.60;;;9.10;;
29370;SDS011;16357;52.188;7.838;2024-01-30T03:23:27;15.18;;;10.77;;
29370;SDS011;16357;52.188;7.838;2024-01-30T03:25:54;12.57;;;8.75;;
29370;SDS011;16357;52.188;7.838;2024-01-30T03:28:21;15.40;;;10.50;;
29370;SDS011;16357;52.188;7.838;2024-01-30T03:30:47;13.93;;;10.00;;
29370;SDS011;16357;52.188;7.838;2024-01-30T03:33:14;16.00;;;9.43;;
29370;SDS011;16357;52.188;7.838;2024-01-30T03:35:40;12.40;;;9.43;;
29370;SDS011;16357;52.188;7.838;2024-01-30T03:38:07;14.15;;;9.63;;
29370;SDS011;16357;52.188;7.838;2024-01-30T03:40:33;13.10;;;9.52;;
29370;SDS011;16357;52.188;7.838;2024-01-30T03:43:00;13.55;;;9.65;;
29370;SDS011;16357;52.188;7.838;2024-01-30T03:45:26;14.48;;;9.38;;
29370;SDS011;16357;52.188;7.838;2024-01-30T03:47:53;13.27;;;9.27;;
29370;SDS011;16357;52.188;7.838;2024-01-30T03:50:19;16.83;;;9.93;;
29370;SDS011;16357;52.188;7.838;2024-01-30T03:52:46;13.52;;;8.80;;
29370;SDS011;16357;52.188;7.838;2024-01-30T03:55:12;13.55;;;9.27;;
29370;SDS011;16357;52.188;7.838;2024-01-30T03:57:39;15.77;;;9.45;;
29370;SDS011;16357;52.188;7.838;2024-01-30T04:00:06;12.52;;;9.00;;
29370;SDS011;16357;52.188;7.838;2024-01-30T04:02:32;13.43;;;9.57;;
29370;SDS011;16357;52.188;7.838;2024-01-30T04:04:59;14.98;;;9.93;;
29370;SDS011;16357;52.188;7.838;2024-01-30T04:07:26;15.00;;;10.38;;
29370;SDS011;16357;52.188;7.838;2024-01-30T04:09:52;13.48;;;9.63;;
29370;SDS011;16357;52.188;7.838;2024-01-30T04:12:19;13.93;;;9.25;;
29370;SDS011;16357;52.188;7.838;2024-01-30T04:14:45;14.25;;;10.18;;
29370;SDS011;16357;52.188;7.838;2024-01-30T04:17:12;15.50;;;9.52;;
29370;SDS011;16357;52.188;7.838;2024-01-30T04:19:39;14.88;;;9.98;;
29370;SDS011;16357;52.188;7.838;2024-01-30T04:22:07;12.68;;;9.60;;
29370;SDS011;16357;52.188;7.838;2024-01-30T04:24:33;15.85;;;10.25;;
29370;SDS011;16357;52.188;7.838;2024-01-30T04:27:00;14.40;;;10.15;;
29370;SDS011;16357;52.188;7.838;2024-01-30T04:29:26;13.05;;;9.38;;
29370;SDS011;16357;52.188;7.838;2024-01-30T04:31:53;14.32;;;9.60;;
29370;SDS011;16357;52.188;7.838;2024-01-30T04:34:19;16.08;;;10.68;;
29370;SDS011;16357;52.188;7.838;2024-01-30T04:36:46;13.35;;;9.30;;
29370;SDS011;16357;52.188;7.838;2024-01-30T04:39:13;14.45;;;9.90;;
29370;SDS011;16357;52.188;7.838;2024-01-30T04:41:39;15.05;;;9.65;;
29370;SDS011;16357;52.188;7.838;2024-01-30T04:44:06;14.82;;;9.60;;
29370;SDS011;16357;52.188;7.838;2024-01-30T04:46:33;12.77;;;9.55;;
29370;SDS011;16357;52.188;7.838;2024-01-30T04:49:00;11.98;;;9.13;;
29370;SDS011;16357;52.188;7.838;2024-01-30T04:51:27;15.95;;;10.05;;
29370;SDS011;16357;52.188;7.838;2024-01-30T04:53:53;16.38;;;9.88;;
29370;SDS011;16357;52.188;7.838;2024-01-30T04:56:20;14.60;;;9.30;;
29370;SDS011;16357;52.188;7.838;2024-01-30T04:58:46;15.95;;;10.43;;
29370;SDS011;16357;52.188;7.838;2024-01-30T05:01:16;14.02;;;9.60;;
29370;SDS011;16357;52.188;7.838;2024-01-30T05:03:43;15.93;;;10.02;;
29370;SDS011;16357;52.188;7.838;2024-01-30T05:06:10;14.85;;;9.80;;
29370;SDS011;16357;52.188;7.838;2024-01-30T05:08:37;16.23;;;9.73;;
29370;SDS011;16357;52.188;7.838;2024-01-30T05:11:04;16.08;;;10.23;;
29370;SDS011;16357;52.188;7.838;2024-01-30T05:13:31;14.77;;;10.05;;
29370;SDS011;16357;52.188;7.838;2024-01-30T05:15:59;16.17;;;10.13;;
29370;SDS011;16357;52.188;7.838;2024-01-30T05:18:28;12.95;;;9.80;;
29370;SDS011;16357;52.188;7.838;2024-01-30T05:20:55;14.68;;;10.60;;
29370;SDS011;16357;52.188;7.838;2024-01-30T05:23:21;15.80;;;10.30;;
29370;SDS011;16357;52.188;7.838;2024-01-30T05:25:48;14.23;;;10.02;;
29370;SDS011;16357;52.188;7.838;2024-01-30T05:28:14;17.60;;;10.55;;
29370;SDS011;16357;52.188;7.838;2024-01-30T05:30:41;15.27;;;10.38;;
29370;SDS011;16357;52.188;7.838;2024-01-30T05:33:07;15.50;;;9.20;;
29370;SDS011;16357;52.188;7.838;2024-01-30T05:35:34;16.23;;;9.68;;
29370;SDS011;16357;52.188;7.838;2024-01-30T05:38:00;14.55;;;10.10;;
29370;SDS011;16357;52.188;7.838;2024-01-30T05:40:27;14.90;;;9.73;;
29370;SDS011;16357;52.188;7.838;2024-01-30T05:42:53;14.65;;;10.02;;
29370;SDS011;16357;52.188;7.838;2024-01-30T05:45:20;15.50;;;9.90;;
29370;SDS011;16357;52.188;7.838;2024-01-30T05:47:48;13.27;;;9.48;;
29370;SDS011;16357;52.188;7.838;2024-01-30T05:50:15;16.75;;;9.95;;
29370;SDS011;16357;52.188;7.838;2024-01-30T05:52:41;14.60;;;9.85;;
29370;SDS011;16357;52.188;7.838;2024-01-30T05:55:08;16.08;;;9.73;;
29370;SDS011;16357;52.188;7.838;2024-01-30T05:57:35;15.18;;;10.00;;
29370;SDS011;16357;52.188;7.838;2024-01-30T06:00:03;14.77;;;10.13;;
29370;SDS011;16357;52.188;7.838;2024-01-30T06:02:31;15.90;;;10.30;;
29370;SDS011;16357;52.188;7.838;2024-01-30T06:04:58;15.38;;;9.60;;
29370;SDS011;16357;52.188;7.838;2024-01-30T06:07:24;14.02;;;9.07;;
29370;SDS011;16357;52.188;7.838;2024-01-30T06:09:51;13.30;;;9.50;;
29370;SDS011;16357;52.188;7.838;2024-01-30T06:12:17;14.82;;;10.40;;
29370;SDS011;16357;52.188;7.838;2024-01-30T06:14:44;13.48;;;9.73;;
29370;SDS011;16357;52.188;7.838;2024-01-30T06:17:13;14.38;;;9.70;;
29370;SDS011;16357;52.188;7.838;2024-01-30T06:19:40;15.52;;;9.77;;
29370;SDS011;16357;52.188;7.838;2024-01-30T06:22:06;18.38;;;10.38;;
29370;SDS011;16357;52.188;7.838;2024-01-30T06:24:33;13.38;;;9.98;;
29370;SDS011;16357;52.188;7.838;2024-01-30T06:27:01;16.13;;;10.00;;
29370;SDS011;16357;52.188;7.838;2024-01-30T06:29:27;14.07;;;10.07;;
29370;SDS011;16357;52.188;7.838;2024-01-30T06:31:54;16.88;;;9.85;;
29370;SDS011;16357;52.188;7.838;2024-01-30T06:34:21;14.23;;;10.07;;
29370;SDS011;16357;52.188;7.838;2024-01-30T06:36:47;14.70;;;10.02;;
29370;SDS011;16357;52.188;7.838;2024-01-30T06:39:14;12.50;;;8.98;;
29370;SDS011;16357;52.188;7.838;2024-01-30T06:41:40;18.90;;;10.40;;
29370;SDS011;16357;52.188;7.838;2024-01-30T06:44:07;13.55;;;9.55;;
29370;SDS011;16357;52.188;7.838;2024-01-30T06:46:35;15.13;;;9.35;;
29370;SDS011;16357;52.188;7.838;2024-01-30T06:49:01;14.02;;;9.77;;
29370;SDS011;16357;52.188;7.838;2024-01-30T06:51:28;15.20;;;9.20;;
29370;SDS011;16357;52.188;7.838;2024-01-30T06:53:54;17.48;;;9.63;;
29370;SDS011;16357;52.188;7.838;2024-01-30T06:56:21;15.15;;;8.95;;
29370;SDS011;16357;52.188;7.838;2024-01-30T06:58:48;12.52;;;8.90;;
29370;SDS011;16357;52.188;7.838;2024-01-30T07:01:15;15.65;;;9.45;;
29370;SDS011;16357;52.188;7.838;2024-01-30T07:03:42;14.18;;;9.98;;
29370;SDS011;16357;52.188;7.838;2024-01-30T07:06:09;14.23;;;9.43;;
29370;SDS011;16357;52.188;7.838;2024-01-30T07:08:39;15.20;;;10.23;;
29370;SDS011;16357;52.188;7.838;2024-01-30T07:11:05;14.02;;;10.00;;
29370;SDS011;16357;52.188;7.838;2024-01-30T07:13:32;15.63;;;9.68;;
29370;SDS011;16357;52.188;7.838;2024-01-30T07:15:58;14.05;;;9.27;;
29370;SDS011;16357;52.188;7.838;2024-01-30T07:18:25;14.60;;;9.45;;
29370;SDS011;16357;52.188;7.838;2024-01-30T07:20:51;14.80;;;9.75;;
29370;SDS011;16357;52.188;7.838;2024-01-30T07:23:18;13.45;;;9.18;;
29370;SDS011;16357;52.188;7.838;2024-01-30T07:25:44;14.02;;;9.35;;
29370;SDS011;16357;52.188;7.838;2024-01-30T07:28:14;13.18;;;9.65;;
29370;SDS011;16357;52.188;7.838;2024-01-30T07:30:53;14.10;;;9.00;;
29370;SDS011;16357;52.188;7.838;2024-01-30T07:33:19;14.88;;;9.57;;
29370;SDS011;16357;52.188;7.838;2024-01-30T07:35:46;13.15;;;8.73;;
29370;SDS011;16357;52.188;7.838;2024-01-30T07:38:13;14.43;;;9.00;;
29370;SDS011;16357;52.188;7.838;2024-01-30T07:40:39;14.10;;;9.48;;
29370;SDS011;16357;52.188;7.838;2024-01-30T07:43:06;14.93;;;9.05;;
29370;SDS011;16357;52.188;7.838;2024-01-30T07:45:32;13.63;;;8.93;;
29370;SDS011;16357;52.188;7.838;2024-01-30T07:47:59;12.48;;;8.80;;
29370;SDS011;16357;52.188;7.838;2024-01-30T07:50:28;15.75;;;8.95;;
29370;SDS011;16357;52.188;7.838;2024-01-30T07:52:55;14.55;;;9.18;;
29370;SDS011;16357;52.188;7.838;2024-01-30T07:55:23;15.13;;;9.48;;
29370;SDS011;16357;52.188;7.838;2024-01-30T07:57:58;12.32;;;8.80;;
29370;SDS011;16357;52.188;7.838;2024-01-30T08:00:26;12.20;;;8.35;;
29370;SDS011;16357;52.188;7.838;2024-01-30T08:02:53;15.40;;;9.05;;
29370;SDS011;16357;52.188;7.838;2024-01-30T08:05:21;17.38;;;8.93;;
29370;SDS011;16357;52.188;7.838;2024-01-30T08:07:51;16.35;;;9.10;;
29370;SDS011;16357;52.188;7.838;2024-01-30T08:10:18;12.98;;;8.63;;
29370;SDS011;16357;52.188;7.838;2024-01-30T08:12:45;14.02;;;8.48;;
29370;SDS011;16357;52.188;7.838;2024-01-30T08:15:12;13.15;;;8.98;;
29370;SDS011;16357;52.188;7.838;2024-01-30T08:17:39;13.95;;;8.68;;
29370;SDS011;16357;52.188;7.838;2024-01-30T08:20:06;12.98;;;8.10;;
29370;SDS011;16357;52.188;7.838;2024-01-30T08:22:34;12.98;;;8.82;;
29370;SDS011;16357;52.188;7.838;2024-01-30T08:25:01;13.18;;;8.77;;
29370;SDS011;16357;52.188;7.838;2024-01-30T08:27:28;14.07;;;9.05;;
29370;SDS011;16357;52.188;7.838;2024-01-30T08:29:54;12.43;;;8.73;;
29370;SDS011;16357;52.188;7.838;2024-01-30T08:32:20;12.45;;;8.70;;
29370;SDS011;16357;52.188;7.838;2024-01-30T08:34:47;13.40;;;8.45;;
29370;SDS011;16357;52.188;7.838;2024-01-30T08:37:14;13.88;;;8.88;;
29370;SDS011;16357;52.188;7.838;2024-01-30T08:39:43;13.98;;;7.90;;
29370;SDS011;16357;52.188;7.838;2024-01-30T08:42:10;11.13;;;8.07;;
29370;SDS011;16357;52.188;7.838;2024-01-30T08:44:36;15.05;;;8.43;;
29370;SDS011;16357;52.188;7.838;2024-01-30T08:47:03;12.23;;;8.63;;
29370;SDS011;16357;52.188;7.838;2024-01-30T08:49:30;13.05;;;8.15;;
29370;SDS011;16357;52.188;7.838;2024-01-30T08:51:57;13.18;;;8.73;;
29370;SDS011;16357;52.188;7.838;2024-01-30T08:54:24;11.30;;;8.65;;
29370;SDS011;16357;52.188;7.838;2024-01-30T08:56:50;13.48;;;7.97;;
29370;SDS011;16357;52.188;7.838;2024-01-30T08:59:19;12.43;;;8.77;;
29370;SDS011;16357;52.188;7.838;2024-01-30T09:01:45;12.40;;;8.25;;
29370;SDS011;16357;52.188;7.838;2024-01-30T09:04:28;12.98;;;8.65;;
29370;SDS011;16357;52.188;7.838;2024-01-30T09:06:55;12.13;;;8.23;;
29370;SDS011;16357;52.188;7.838;2024-01-30T09:09:22;12.32;;;8.52;;
29370;SDS011;16357;52.188;7.838;2024-01-30T09:11:48;13.23;;;8.63;;
29370;SDS011;16357;52.188;7.838;2024-01-30T09:14:15;11.95;;;7.93;;
29370;SDS011;16357;52.188;7.838;2024-01-30T09:16:41;11.40;;;8.38;;
29370;SDS011;16357;52.188;7.838;2024-01-30T09:19:08;14.48;;;8.73;;
29370;SDS011;16357;52.188;7.838;2024-01-30T09:21:34;13.68;;;8.07;;
29370;SDS011;16357;52.188;7.838;2024-01-30T09:24:02;11.23;;;8.15;;
29370;SDS011;16357;52.188;7.838;2024-01-30T09:26:32;11.98;;;8.20;;
29370;SDS011;16357;52.188;7.838;2024-01-30T09:28:58;12.02;;;8.43;;
29370;SDS011;16357;52.188;7.838;2024-01-30T09:31:24;11.85;;;8.20;;
29370;SDS011;16357;52.188;7.838;2024-01-30T09:33:51;13.52;;;8.00;;
29370;SDS011;16357;52.188;7.838;2024-01-30T09:36:20;10.93;;;8.00;;
29370;SDS011;16357;52.188;7.838;2024-01-30T09:38:47;9.90;;;7.75;;
29370;SDS011;16357;52.188;7.838;2024-01-30T09:41:13;11.07;;;7.80;;
29370;SDS011;16357;52.188;7.838;2024-01-30T09:43:41;10.68;;;7.65;;
29370;SDS011;16357;52.188;7.838;2024-01-30T09:46:14;12.23;;;8.07;;
29370;SDS011;16357;52.188;7.838;2024-01-30T09:48:42;12.63;;;7.97;;
29370;SDS011;16357;52.188;7.838;2024-01-30T09:51:09;11.23;;;7.90;;
29370;SDS011;16357;52.188;7.838;2024-01-30T09:53:36;10.55;;;7.47;;
29370;SDS011;16357;52.188;7.838;2024-01-30T09:56:03;11.02;;;7.38;;
29370;SDS011;16357;52.188;7.838;2024-01-30T09:58:30;12.07;;;8.70;;
29370;SDS011;16357;52.188;7.838;2024-01-30T10:00:57;12.07;;;7.35;;
29370;SDS011;16357;52.188;7.838;2024-01-30T10:03:25;11.48;;;7.32;;
29370;SDS011;16357;52.188;7.838;2024-01-30T10:05:51;11.20;;;7.85;;
29370;SDS011;16357;52.188;7.838;2024-01-30T10:08:21;10.82;;;7.53;;
29370;SDS011;16357;52.188;7.838;2024-01-30T10:10:49;12.35;;;7.68;;
29370;SDS011;16357;52.188;7.838;2024-01-30T10:13:18;10.60;;;7.53;;
29370;SDS011;16357;52.188;7.838;2024-01-30T10:15:45;11.88;;;7.85;;
29370;SDS011;16357;52.188;7.838;2024-01-30T10:18:11;11.23;;;7.55;;
29370;SDS011;16357;52.188;7.838;2024-01-30T10:20:38;8.98;;;7.07;;
29370;SDS011;16357;52.188;7.838;2024-01-30T10:23:04;9.18;;;7.18;;
29370;SDS011;16357;52.188;7.838;2024-01-30T10:25:31;11.85;;;7.47;;
29370;SDS011;16357;52.188;7.838;2024-01-30T10:27:58;12.02;;;8.07;;
29370;SDS011;16357;52.188;7.838;2024-01-30T10:30:25;13.20;;;7.65;;
29370;SDS011;16357;52.188;7.838;2024-01-30T10:32:54;10.73;;;7.90;;
29370;SDS011;16357;52.188;7.838;2024-01-30T10:35:21;11.57;;;7.05;;
29370;SDS011;16357;52.188;7.838;2024-01-30T10:37:47;10.57;;;7.15;;
29370;SDS011;16357;52.188;7.838;2024-01-30T10:40:15;9.75;;;7.28;;
29370;SDS011;16357;52.188;7.838;2024-01-30T10:42:42;12.95;;;7.68;;
29370;SDS011;16357;52.188;7.838;2024-01-30T10:45:12;14.27;;;8.10;;
29370;SDS011;16357;52.188;7.838;2024-01-30T10:47:40;15.27;;;7.78;;
29370;SDS011;16357;52.188;7.838;2024-01-30T10:50:09;13.43;;;7.63;;
29370;SDS011;16357;52.188;7.838;2024-01-30T10:52:37;11.02;;;7.55;;
29370;SDS011;16357;52.188;7.838;2024-01-30T10:55:04;10.18;;;7.38;;
29370;SDS011;16357;52.188;7.838;2024-01-30T10:57:34;11.52;;;7.35;;
29370;SDS011;16357;52.188;7.838;2024-01-30T11:00:12;13.57;;;8.30;;
29370;SDS011;16357;52.188;7.838;2024-01-30T11:02:43;11.45;;;6.88;;
29370;SDS011;16357;52.188;7.838;2024-01-30T11:05:11;12.60;;;7.55;;
29370;SDS011;16357;52.188;7.838;2024-01-30T11:07:39;12.02;;;7.32;;
29370;SDS011;16357;52.188;7.838;2024-01-30T11:10:07;12.02;;;7.57;;
29370;SDS011;16357;52.188;7.838;2024-01-30T11:12:39;9.77;;;7.47;;
29370;SDS011;16357;52.188;7.838;2024-01-30T11:15:13;9.18;;;7.30;;
29370;SDS011;16357;52.188;7.838;2024-01-30T11:20:14;11.32;;;7.05;;
29370;SDS011;16357;52.188;7.838;2024-01-30T11:22:42;8.77;;;6.78;;
29370;SDS011;16357;52.188;7.838;2024-01-30T11:25:11;9.02;;;7.30;;
29370;SDS011;16357;52.188;7.838;2024-01-30T11:27:42;11.13;;;7.20;;
29370;SDS011;16357;52.188;7.838;2024-01-30T11:30:10;11.57;;;7.55;;
29370;SDS011;16357;52.188;7.838;2024-01-30T11:32:37;11.38;;;7.70;;
29370;SDS011;16357;52.188;7.838;2024-01-30T11:35:04;14.23;;;8.50;;
29370;SDS011;16357;52.188;7.838;2024-01-30T11:37:32;10.85;;;7.20;;
29370;SDS011;16357;52.188;7.838;2024-01-30T11:40:03;12.23;;;7.43;;
29370;SDS011;16357;52.188;7.838;2024-01-30T11:42:30;13.00;;;7.25;;
29370;SDS011;16357;52.188;7.838;2024-01-30T11:44:59;12.98;;;7.43;;
29370;SDS011;16357;52.188;7.838;2024-01-30T11:47:27;10.43;;;6.85;;
29370;SDS011;16357;52.188;7.838;2024-01-30T11:49:53;12.68;;;7.28;;
29370;SDS011;16357;52.188;7.838;2024-01-30T11:52:23;12.13;;;7.50;;
29370;SDS011;16357;52.188;7.838;2024-01-30T11:54:50;11.27;;;7.32;;
29370;SDS011;16357;52.188;7.838;2024-01-30T11:57:16;10.23;;;7.15;;
29370;SDS011;16357;52.188;7.838;2024-01-30T11:59:46;8.95;;;6.68;;
29370;SDS011;16357;52.188;7.838;2024-01-30T12:02:15;9.85;;;6.70;;
29370;SDS011;16357;52.188;7.838;2024-01-30T12:04:43;9.02;;;6.68;;
29370;SDS011;16357;52.188;7.838;2024-01-30T12:07:10;13.43;;;7.10;;
29370;SDS011;16357;52.188;7.838;2024-01-30T12:09:37;10.32;;;6.60;;
29370;SDS011;16357;52.188;7.838;2024-01-30T12:12:04;8.40;;;6.30;;
29370;SDS011;16357;52.188;7.838;2024-01-30T12:14:31;11.88;;;6.72;;
29370;SDS011;16357;52.188;7.838;2024-01-30T12:16:58;8.95;;;6.10;;
29370;SDS011;16357;52.188;7.838;2024-01-30T12:19:24;10.40;;;6.07;;
29370;SDS011;16357;52.188;7.838;2024-01-30T12:21:58;10.25;;;6.45;;
29370;SDS011;16357;52.188;7.838;2024-01-30T12:24:27;9.63;;;6.45;;
29370;SDS011;16357;52.188;7.838;2024-01-30T12:26:56;8.23;;;6.10;;
29370;SDS011;16357;52.188;7.838;2024-01-30T12:29:24;11.07;;;6.10;;
29370;SDS011;16357;52.188;7.838;2024-01-30T12:31:53;14.13;;;6.57;;
29370;SDS011;16357;52.188;7.838;2024-01-30T12:34:21;9.65;;;6.57;;
29370;SDS011;16357;52.188;7.838;2024-01-30T12:36:47;11.00;;;6.40;;
29370;SDS011;16357;52.188;7.838;2024-01-30T12:39:15;12.18;;;6.70;;
29370;SDS011;16357;52.188;7.838;2024-01-30T12:41:41;12.43;;;6.28;;
29370;SDS011;16357;52.188;7.838;2024-01-30T12:44:08;12.75;;;6.85;;
29370;SDS011;16357;52.188;7.838;2024-01-30T12:46:35;11.98;;;6.60;;
29370;SDS011;16357;52.188;7.838;2024-01-30T12:49:01;14.63;;;6.53;;
29370;SDS011;16357;52.188;7.838;2024-01-30T12:51:28;14.20;;;6.72;;
29370;SDS011;16357;52.188;7.838;2024-01-30T12:53:55;11.82;;;6.45;;
29370;SDS011;16357;52.188;7.838;2024-01-30T12:56:21;11.25;;;6.18;;
29370;SDS011;16357;52.188;7.838;2024-01-30T12:58:48;13.05;;;6.65;;
29370;SDS011;16357;52.188;7.838;2024-01-30T13:01:19;10.98;;;6.53;;
29370;SDS011;16357;52.188;7.838;2024-01-30T13:03:46;11.23;;;5.78;;
29370;SDS011;16357;52.188;7.838;2024-01-30T13:06:13;8.75;;;5.82;;
29370;SDS011;16357;52.188;7.838;2024-01-30T13:08:39;11.90;;;6.45;;
29370;SDS011;16357;52.188;7.838;2024-01-30T13:11:06;11.55;;;6.38;;
29370;SDS011;16357;52.188;7.838;2024-01-30T13:13:42;11.98;;;6.18;;
29370;SDS011;16357;52.188;7.838;2024-01-30T13:16:09;10.40;;;7.07;;
29370;SDS011;16357;52.188;7.838;2024-01-30T13:18:36;10.80;;;6.03;;
29370;SDS011;16357;52.188;7.838;2024-01-30T13:21:02;11.88;;;6.63;;
29370;SDS011;16357;52.188;7.838;2024-01-30T13:23:29;10.95;;;6.22;;
29370;SDS011;16357;52.188;7.838;2024-01-30T13:25:55;9.30;;;6.03;;
29370;SDS011;16357;52.188;7.838;2024-01-30T13:28:24;10.48;;;6.60;;
29370;SDS011;16357;52.188;7.838;2024-01-30T13:30:52;12.27;;;6.45;;
29370;SDS011;16357;52.188;7.838;2024-01-30T13:33:18;12.27;;;6.70;;
29370;SDS011;16357;52.188;7.838;2024-01-30T13:35:45;9.60;;;6.47;;
29370;SDS011;16357;52.188;7.838;2024-01-30T13:38:12;12.00;;;6.32;;
29370;SDS011;16357;52.188;7.838;2024-01-30T13:40:39;13.13;;;6.95;;
29370;SDS011;16357;52.188;7.838;2024-01-30T13:43:06;11.70;;;6.72;;
29370;SDS011;16357;52.188;7.838;2024-01-30T13:45:33;11.68;;;6.20;;
29370;SDS011;16357;52.188;7.838;2024-01-30T13:47:59;10.95;;;5.97;;
29370;SDS011;16357;52.188;7.838;2024-01-30T13:50:26;10.45;;;6.38;;
29370;SDS011;16357;52.188;7.838;2024-01-30T13:52:52;10.60;;;6.13;;
29370;SDS011;16357;52.188;7.838;2024-01-30T13:55:19;10.00;;;6.60;;
29370;SDS011;16357;52.188;7.838;2024-01-30T13:57:46;11.50;;;6.05;;
29370;SDS011;16357;52.188;7.838;2024-01-30T14:00:16;8.70;;;6.15;;
29370;SDS011;16357;52.188;7.838;2024-01-30T14:02:43;10.93;;;6.18;;
29370;SDS011;16357;52.188;7.838;2024-01-30T14:05:09;9.98;;;6.13;;
29370;SDS011;16357;52.188;7.838;2024-01-30T14:07:36;9.35;;;6.03;;
29370;SDS011;16357;52.188;7.838;2024-01-30T14:10:05;11.45;;;6.30;;
29370;SDS011;16357;52.188;7.838;2024-01-30T14:12:37;12.48;;;6.40;;
29370;SDS011;16357;52.188;7.838;2024-01-30T14:15:03;9.20;;;5.63;;
29370;SDS011;16357;52.188;7.838;2024-01-30T14:17:45;7.10;;;5.82;;
29370;SDS011;16357;52.188;7.838;2024-01-30T14:20:14;8.73;;;5.75;;
29370;SDS011;16357;52.188;7.838;2024-01-30T14:22:42;10.52;;;6.03;;
29370;SDS011;16357;52.188;7.838;2024-01-30T14:25:09;11.70;;;6.13;;
29370;SDS011;16357;52.188;7.838;2024-01-30T14:27:36;10.77;;;6.22;;
29370;SDS011;16357;52.188;7.838;2024-01-30T14:30:03;10.23;;;6.10;;
29370;SDS011;16357;52.188;7.838;2024-01-30T14:32:30;10.85;;;6.63;;
29370;SDS011;16357;52.188;7.838;2024-01-30T14:34:56;11.65;;;6.50;;